Time;durP1;ratioP1;P1;durP2;ratioP2;P2;SDS_P1;SDS_P2;PMS_P1;PMS_P2;Temp;Humidity;BMP_temperature;BMP_pressure;BME280_temperature;BME280_humidity;BME280_pressure;Samples;Min_cycle;Max_cycle;Signal;HPM_P1;HPM_P2
2022/07/06 00:01:14;;;;;;;2.58;0.85;;;;;;;18.18;52.15;101381.56;10386133;28;20212;-84
2022/07/06 00:06:17;;;;;;;4.38;0.80;;;;;;;18.50;51.47;101379.53;10397602;28;20200;-80
2022/07/06 00:11:19;;;;;;;2.75;0.85;;;;;;;17.96;53.05;101374.00;10384103;28;20197;-81
2022/07/06 00:16:22;;;;;;;2.65;0.93;;;;;;;17.64;54.43;101386.47;10379582;28;20204;-84
2022/07/06 00:21:24;;;;;;;1.75;0.70;;;;;;;17.43;54.71;101382.53;10381981;28;20201;-81
2022/07/06 00:26:26;;;;;;;4.85;1.15;;;;;;;17.13;55.86;101394.56;10344408;28;20220;-80
2022/07/06 00:31:29;;;;;;;4.45;1.10;;;;;;;16.84;56.36;101393.03;10362819;28;20221;-80
2022/07/06 00:36:31;;;;;;;4.05;1.10;;;;;;;17.20;55.25;101383.69;10377885;28;20263;-81
2022/07/06 00:41:33;;;;;;;3.78;0.95;;;;;;;17.62;53.68;101390.81;10327788;28;20193;-81
2022/07/06 00:46:36;;;;;;;2.20;1.05;;;;;;;17.55;54.27;101393.25;10344216;28;20177;-81
2022/07/06 00:51:38;;;;;;;6.22;1.00;;;;;;;17.21;55.07;101402.31;10343855;28;20190;-81
2022/07/06 00:56:40;;;;;;;6.72;1.20;;;;;;;17.66;54.16;101386.16;10343904;28;20595;-80
2022/07/06 01:01:44;;;;;;;3.03;1.10;;;;;;;18.03;52.36;101390.53;10344040;28;20189;-80
2022/07/06 01:06:47;;;;;;;3.70;1.38;;;;;;;17.66;53.32;101387.00;10360044;28;20233;-79
2022/07/06 01:11:50;;;;;;;3.33;1.05;;;;;;;17.44;53.55;101389.84;10359713;28;20574;-80
2022/07/06 01:16:52;;;;;;;2.35;1.13;;;;;;;17.64;52.98;101397.78;10343927;28;20205;-79
2022/07/06 01:21:55;;;;;;;2.42;0.98;;;;;;;17.51;53.32;101390.22;10359413;28;20463;-79
2022/07/06 01:26:58;;;;;;;1.75;1.02;;;;;;;17.72;52.44;101396.19;10343318;28;20190;-79
2022/07/06 01:32:00;;;;;;;4.07;1.25;;;;;;;16.50;55.83;101399.16;10327427;28;20248;-80
2022/07/06 01:37:03;;;;;;;4.95;1.20;;;;;;;17.39;52.96;101398.47;10359348;28;20209;-80
2022/07/06 01:42:05;;;;;;;2.28;1.10;;;;;;;16.94;53.78;101391.94;10343189;28;20189;-80
2022/07/06 01:47:07;;;;;;;1.88;0.98;;;;;;;16.93;53.69;101390.28;10359209;28;20193;-79
2022/07/06 01:52:10;;;;;;;3.45;0.98;;;;;;;17.83;51.36;101377.75;10359011;28;20243;-79
2022/07/06 01:57:12;;;;;;;0.82;0.82;;;;;;;17.53;52.28;101376.59;10350023;28;20205;-80
2022/07/06 02:02:15;;;;;;;3.05;1.10;;;;;;;17.68;51.62;101379.03;10374500;28;20200;-80
2022/07/06 02:07:19;;;;;;;3.55;1.10;;;;;;;17.36;52.14;101378.50;10358030;28;20220;-80
2022/07/06 02:12:21;;;;;;;4.38;0.90;;;;;;;17.28;52.62;101375.25;10382641;28;20189;-81
2022/07/06 02:17:25;;;;;;;3.57;0.90;;;;;;;17.56;52.12;101380.78;10333325;28;20213;-80
2022/07/06 02:22:28;;;;;;;3.28;0.90;;;;;;;16.52;54.53;101398.84;10348809;28;20585;-81
2022/07/06 02:27:30;;;;;;;2.22;0.68;;;;;;;17.10;52.92;101384.78;10381044;28;20232;-79
2022/07/06 02:32:34;;;;;;;3.83;0.60;;;;;;;17.05;52.89;101389.69;10348808;28;20692;-80
2022/07/06 02:37:37;;;;;;;6.90;1.03;;;;;;;17.14;53.15;101384.94;10364660;28;20213;-79
2022/07/06 02:42:40;;;;;;;0.93;0.65;;;;;;;16.97;53.65;101385.66;10353522;28;20189;-78
2022/07/06 02:47:44;;;;;;;3.25;0.82;;;;;;;16.76;54.27;101382.47;10381645;28;20260;-79
2022/07/06 02:52:46;;;;;;;2.85;0.98;;;;;;;16.92;53.71;101380.13;10364793;28;20256;-80
2022/07/06 02:57:49;;;;;;;2.20;0.63;;;;;;;16.87;54.11;101386.72;10347716;28;20213;-80
2022/07/06 03:02:51;;;;;;;1.80;0.60;;;;;;;17.02;53.57;101401.63;10331612;28;20275;-85
2022/07/06 03:07:54;;;;;;;2.80;0.90;;;;;;;16.80;53.87;101408.94;10384925;28;20213;-83
2022/07/06 03:12:56;;;;;;;1.25;0.85;;;;;;;16.80;54.28;101394.81;10404449;28;20192;-83
2022/07/06 03:17:59;;;;;;;3.67;1.17;;;;;;;16.74;54.44;101404.53;10360966;28;20259;-84
2022/07/06 03:23:02;;;;;;;2.05;1.10;;;;;;;16.97;53.85;101406.28;10385946;28;20188;-84
2022/07/06 03:28:04;;;;;;;1.40;0.90;;;;;;;16.90;54.02;101414.34;10418653;28;20683;-83
2022/07/06 03:33:07;;;;;;;3.13;1.23;;;;;;;17.10;53.64;101412.19;10380880;28;20594;-83
2022/07/06 03:38:10;;;;;;;4.93;1.13;;;;;;;16.89;53.99;101412.66;10378754;28;20217;-84
2022/07/06 03:43:15;;;;;;;2.33;0.90;;;;;;;17.14;53.57;101402.75;10391238;28;20501;-83
2022/07/06 03:48:18;;;;;;;2.53;1.00;;;;;;;16.92;54.40;101399.91;10400027;28;20544;-85
2022/07/06 03:53:22;;;;;;;2.53;1.20;;;;;;;16.79;54.62;101407.25;10393426;28;20235;-84
2022/07/06 03:58:25;;;;;;;3.20;1.17;;;;;;;16.72;55.29;101400.41;10399983;28;20251;-84
2022/07/06 04:03:27;;;;;;;4.63;1.40;;;;;;;16.73;55.45;101408.56;10402836;28;20227;-85
2022/07/06 04:08:35;;;;;;;1.55;1.25;;;;;;;16.97;54.61;101400.63;10402528;28;20219;-84
2022/07/06 04:13:38;;;;;;;3.42;1.20;;;;;;;16.96;54.57;101404.59;10402383;28;20648;-84
2022/07/06 04:18:42;;;;;;;3.23;1.10;;;;;;;16.96;54.86;101407.44;10385301;28;20216;-85
2022/07/06 04:23:45;;;;;;;3.17;1.37;;;;;;;17.48;53.35;101409.84;10385714;28;20188;-87
2022/07/06 04:28:48;;;;;;;6.67;1.67;;;;;;;17.22;53.96;101418.13;10418582;28;20212;-82
2022/07/06 04:33:51;;;;;;;3.65;1.30;;;;;;;17.52;53.57;101408.03;10369976;28;20193;-78
2022/07/06 04:38:56;;;;;;;4.45;1.35;;;;;;;17.67;53.53;101414.13;10355339;28;20220;-83
2022/07/06 04:43:59;;;;;;;4.43;1.23;;;;;;;16.83;55.70;101418.78;10382844;28;20189;-81
2022/07/06 04:49:01;;;;;;;2.25;1.20;;;;;;;17.16;54.97;101413.72;10352526;28;20184;-81
2022/07/06 04:54:05;;;;;;;5.73;1.27;;;;;;;17.21;55.35;101407.97;10368053;28;20192;-84
2022/07/06 04:59:10;;;;;;;6.30;1.80;;;;;;;17.02;55.66;101410.13;10377289;28;20217;-82
2022/07/06 05:04:13;;;;;;;4.78;1.38;;;;;;;17.23;55.19;101419.78;10414256;28;20208;-80
2022/07/06 05:09:15;;;;;;;3.20;1.40;;;;;;;17.42;54.92;101409.13;10368844;28;20530;-80
2022/07/06 05:14:20;;;;;;;4.53;1.60;;;;;;;17.45;54.61;101414.16;10389399;28;20251;-79
2022/07/06 05:19:23;;;;;;;2.15;0.55;;;;;;;17.49;54.48;101409.53;10394054;28;20243;-82
2022/07/06 05:24:25;;;;;;;4.95;1.70;;;;;;;16.87;57.17;101417.78;10382027;28;20201;-83
2022/07/06 05:29:28;;;;;;;5.38;1.38;;;;;;;17.16;56.38;101416.56;10393387;28;20581;-80
2022/07/06 05:34:30;;;;;;;3.03;1.17;;;;;;;17.37;55.33;101417.78;10386802;28;20181;-86
2022/07/06 05:39:32;;;;;;;3.27;1.20;;;;;;;17.32;56.15;101415.84;10352906;28;20217;-80
2022/07/06 05:44:35;;;;;;;3.58;1.63;;;;;;;17.60;56.02;101415.75;10371771;28;20602;-79
2022/07/06 05:54:58;;;;;;;4.40;1.30;;;;;;;17.05;56.92;101432.94;10355745;28;20471;-79
2022/07/06 06:00:01;;;;;;;6.63;1.73;;;;;;;17.72;55.02;101434.94;10375554;28;20213;-79
2022/07/06 06:05:07;;;;;;;6.00;1.07;;;;;;;17.93;53.70;101436.91;10369870;28;20613;-79
2022/07/06 06:10:11;;;;;;;4.30;0.77;;;;;;;17.73;54.64;101445.13;10366060;28;20239;-79
2022/07/06 06:15:14;;;;;;;3.75;0.73;;;;;;;17.79;54.48;101438.16;10348342;28;20254;-79
2022/07/06 06:20:17;;;;;;;4.17;0.77;;;;;;;16.48;58.57;101451.41;10354176;28;20508;-80
2022/07/06 06:25:21;;;;;;;2.63;0.63;;;;;;;16.61;57.29;101462.72;10328271;28;20190;-84
2022/07/06 06:30:24;;;;;;;3.10;0.55;;;;;;;17.15;55.61;101460.09;10401674;28;20213;-84
2022/07/06 06:35:26;;;;;;;2.30;0.60;;;;;;;17.83;54.10;101448.50;10402436;28;20248;-84
2022/07/06 06:40:28;;;;;;;10.35;1.50;;;;;;;17.93;53.10;101447.38;10370778;28;20221;-80
2022/07/06 06:45:34;;;;;;;6.07;1.00;;;;;;;18.56;50.94;101444.16;10399215;28;20193;-84
2022/07/06 06:50:36;;;;;;;2.00;0.52;;;;;;;17.62;53.68;101451.03;10392279;28;20192;-82
2022/07/06 06:55:39;;;;;;;1.88;0.45;;;;;;;17.46;53.86;101466.72;10403214;28;20255;-81
2022/07/06 07:00:43;;;;;;;1.85;0.30;;;;;;;18.26;51.52;101462.91;10404591;28;20286;-81
2022/07/06 07:05:45;;;;;;;4.80;0.40;;;;;;;17.96;52.67;101460.88;10388046;28;20292;-82
2022/07/06 07:10:47;;;;;;;2.13;0.50;;;;;;;18.28;52.32;101460.59;10405424;28;20244;-81
2022/07/06 07:15:50;;;;;;;1.25;0.32;;;;;;;18.24;51.13;101451.06;10386705;28;20235;-83
2022/07/06 07:20:52;;;;;;;2.55;0.30;;;;;;;18.32;52.47;101460.75;10402430;28;20240;-80
2022/07/06 07:25:55;;;;;;;3.20;0.40;;;;;;;17.50;53.29;101472.59;10402306;28;20251;-79
2022/07/06 07:30:57;;;;;;;4.28;0.47;;;;;;;18.63;50.75;101474.84;10403733;28;20225;-82
2022/07/06 07:35:59;;;;;;;3.17;0.65;;;;;;;17.73;52.67;101477.06;10414877;28;20200;-78
2022/07/06 07:41:02;;;;;;;5.75;0.47;;;;;;;18.29;51.41;101479.22;10378969;28;20354;-79
2022/07/06 07:46:04;;;;;;;3.63;0.75;;;;;;;17.98;52.11;101484.03;10385130;28;20607;-80
2022/07/06 07:51:09;;;;;;;5.03;0.80;;;;;;;18.23;51.24;101474.03;10411424;28;20224;-80
2022/07/06 07:56:11;;;;;;;1.67;0.65;;;;;;;19.46;47.70;101473.63;10380896;28;20201;-80
2022/07/06 08:01:13;;;;;;;1.08;0.40;;;;;;;18.55;48.75;101479.31;10400360;28;20209;-81
2022/07/06 08:06:16;;;;;;;1.45;0.38;;;;;;;20.10;46.93;101470.91;10369258;28;20625;-81
2022/07/06 08:11:18;;;;;;;0.88;0.22;;;;;;;20.21;47.14;101470.53;10397651;28;20219;-80
2022/07/06 08:16:21;;;;;;;3.78;0.20;;;;;;;19.42;46.85;101472.66;10414127;28;20270;-80
2022/07/06 08:21:23;;;;;;;1.67;0.20;;;;;;;18.69;45.96;101467.84;10390241;28;20232;-81
2022/07/06 08:26:28;;;;;;;6.75;0.50;;;;;;;19.06;46.29;101463.66;10399137;28;20213;-80
2022/07/06 08:31:31;;;;;;;2.15;0.40;;;;;;;19.03;45.61;101470.81;10399025;28;20213;-80
2022/07/06 08:36:53;;;;;;;3.92;0.20;;;;;;;19.21;45.68;101462.28;10398388;28;20203;-82
2022/07/06 08:41:56;;;;;;;5.13;0.22;;;;;;;19.04;45.54;101461.16;10388605;28;20208;-80
2022/07/06 08:47:04;;;;;;;2.20;0.40;;;;;;;18.84;45.84;101467.41;10397873;28;20185;-82
2022/07/06 08:52:08;;;;;;;4.40;0.30;;;;;;;18.68;46.21;101464.19;10368744;28;20197;-81
2022/07/06 08:57:10;;;;;;;2.38;0.45;;;;;;;18.92;46.46;101458.09;10395256;28;20253;-82
2022/07/06 09:02:13;;;;;;;3.10;0.40;;;;;;;17.71;48.64;101473.72;10396352;28;20240;-81
2022/07/06 09:07:16;;;;;;;4.07;0.52;;;;;;;19.41;45.05;101473.00;10395695;28;20212;-82
2022/07/06 09:12:39;;;;;;;2.15;0.35;;;;;;;19.53;45.02;101478.81;10408430;28;20212;-81
2022/07/06 09:17:42;;;;;;;1.70;0.35;;;;;;;19.04;46.53;101482.97;10404623;28;20193;-81
2022/07/06 09:22:44;;;;;;;3.63;0.40;;;;;;;19.37;46.79;101475.66;10408654;28;20216;-82
2022/07/06 09:27:49;;;;;;;2.35;0.63;;;;;;;19.07;45.30;101474.63;10387081;28;20216;-82
2022/07/06 09:32:56;;;;;;;0.63;0.30;;;;;;;19.52;44.21;101471.47;10401463;28;20246;-80
2022/07/06 09:38:09;;;;;;;0.75;0.30;;;;;;;19.08;45.30;101464.13;10403825;28;20255;-82
2022/07/06 09:43:15;;;;;;;2.25;0.30;;;;;;;20.75;41.58;101460.25;10404138;28;20251;-80
2022/07/06 09:48:21;;;;;;;0.70;0.20;;;;;;;20.50;40.54;101453.50;10405215;28;20192;-82
2022/07/06 09:53:25;;;;;;;1.65;0.35;;;;;;;20.51;41.08;101460.88;10401617;28;20193;-80
2022/07/06 09:58:28;;;;;;;3.50;0.47;;;;;;;20.56;41.72;101457.03;10386346;28;20549;-81
2022/07/06 10:03:50;;;;;;;1.35;0.30;;;;;;;20.25;40.62;101455.28;10405122;28;20262;-81
2022/07/06 10:08:57;;;;;;;1.23;0.30;;;;;;;19.15;42.52;101467.31;10402951;28;20659;-80
2022/07/06 10:14:01;;;;;;;5.15;0.32;;;;;;;20.98;41.00;101450.22;10389052;28;20196;-80
2022/07/06 10:19:08;;;;;;;3.15;0.52;;;;;;;20.84;39.07;101449.66;10371286;28;20514;-80
2022/07/06 10:24:12;;;;;;;3.42;0.30;;;;;;;21.44;38.39;101437.81;10382839;28;20738;-81
2022/07/06 10:29:14;;;;;;;1.50;0.40;;;;;;;21.32;37.42;101448.31;10401694;28;20221;-83
2022/07/06 10:34:19;;;;;;;1.65;0.30;;;;;;;20.48;39.98;101451.03;10358813;28;20530;-80
2022/07/06 10:44:59;;;;;;;1.35;0.30;;;;;;;20.60;40.05;101449.47;10409947;28;20196;-80
2022/07/06 10:50:02;;;;;;;1.42;0.30;;;;;;;20.59;39.99;101450.66;10411817;28;20219;-81
2022/07/06 10:55:04;;;;;;;6.30;0.40;;;;;;;21.47;38.28;101439.13;10387755;28;20223;-82
2022/07/06 11:00:10;;;;;;;4.15;0.40;;;;;;;20.11;41.04;101443.31;10396794;28;20264;-80
2022/07/06 11:05:41;;;;;;;1.85;0.50;;;;;;;21.61;38.69;101431.13;10393974;28;20494;-80
2022/07/06 11:11:12;;;;;;;1.58;0.40;;;;;;;22.53;36.48;101440.09;10403851;28;20215;-82
2022/07/06 11:16:16;;;;;;;1.17;0.30;;;;;;;21.71;37.51;101432.69;10389296;28;20215;-81
2022/07/06 11:21:20;;;;;;;2.67;0.30;;;;;;;21.12;37.56;101433.72;10399878;28;20270;-80
2022/07/06 11:26:22;;;;;;;1.35;0.20;;;;;;;21.65;38.57;101432.09;10387906;28;20188;-80
2022/07/06 11:31:24;;;;;;;4.82;0.30;;;;;;;21.34;37.47;101424.03;10409561;28;20243;-79
2022/07/06 11:36:27;;;;;;;3.03;0.50;;;;;;;20.62;38.65;101430.09;10390577;28;20185;-79
2022/07/06 11:41:39;;;;;;;1.20;0.20;;;;;;;20.08;39.27;101433.50;10392661;28;20561;-79
2022/07/06 11:46:41;;;;;;;3.83;0.32;;;;;;;21.75;36.87;101434.50;10403666;28;20192;-80
2022/07/06 11:51:45;;;;;;;1.27;0.30;;;;;;;22.63;38.28;101431.09;10374118;28;20227;-80
2022/07/06 11:56:53;;;;;;;2.50;0.40;;;;;;;23.08;33.57;101417.84;10371136;28;20667;-81
2022/07/06 12:02:01;;;;;;;1.95;0.20;;;;;;;23.42;33.30;101411.53;10368891;28;20212;-80
2022/07/06 12:07:07;;;;;;;2.38;0.20;;;;;;;22.78;34.88;101408.75;10393607;28;20235;-80
2022/07/06 12:12:10;;;;;;;3.83;0.50;;;;;;;22.07;36.23;101420.59;10414939;28;20263;-80
2022/07/06 12:17:14;;;;;;;2.95;0.65;;;;;;;22.27;35.47;101402.56;10381692;28;20197;-79
2022/07/06 12:22:24;;;;;;;1.92;0.20;;;;;;;21.92;35.12;101397.28;10380451;28;20225;-80
2022/07/06 12:27:27;;;;;;;3.67;0.60;;;;;;;21.62;35.02;101383.56;10390068;28;20197;-80
2022/07/06 12:32:29;;;;;;;7.20;0.50;;;;;;;21.59;35.28;101368.03;10365994;28;20196;-80
2022/07/06 12:37:31;;;;;;;1.08;0.20;;;;;;;22.23;36.05;101370.28;10377329;28;20263;-79
2022/07/06 12:42:33;;;;;;;1.30;0.32;;;;;;;23.49;32.70;101359.50;10396093;28;20277;-80
2022/07/06 12:47:39;;;;;;;2.40;0.20;;;;;;;23.36;32.84;101360.78;10354543;28;20254;-80
2022/07/06 12:52:41;;;;;;;2.55;0.30;;;;;;;23.66;32.13;101347.75;10407558;28;20231;-80
2022/07/06 12:57:45;;;;;;;1.90;0.40;;;;;;;23.22;32.12;101359.16;10394538;28;20189;-80
2022/07/06 13:02:56;;;;;;;1.55;0.30;;;;;;;22.85;34.02;101351.91;10397746;28;20224;-80
2022/07/06 13:08:14;;;;;;;2.78;0.20;;;;;;;22.51;31.55;101354.09;10392415;28;21650;-80
2022/07/06 13:13:16;;;;;;;1.70;0.22;;;;;;;23.05;32.64;101345.19;10390186;28;20197;-81
2022/07/06 13:18:19;;;;;;;2.83;0.40;;;;;;;23.35;31.65;101340.00;10380185;28;20197;-81
2022/07/06 13:23:21;;;;;;;4.57;0.50;;;;;;;23.33;32.25;101337.50;10398308;28;20217;-81
2022/07/06 13:28:24;;;;;;;4.63;0.40;;;;;;;22.88;32.13;101322.66;10385468;28;20287;-80
2022/07/06 13:33:26;;;;;;;1.65;0.30;;;;;;;22.76;32.70;101317.00;10355304;28;20194;-83
2022/07/06 13:38:29;;;;;;;1.90;0.20;;;;;;;23.22;32.09;101322.06;10353748;28;20570;-81
2022/07/06 13:43:35;;;;;;;1.45;0.20;;;;;;;22.67;32.83;101322.03;10360765;28;20248;-81
2022/07/06 13:48:38;;;;;;;3.13;0.20;;;;;;;21.65;33.64;101326.78;10329770;28;20194;-80
2022/07/06 13:53:40;;;;;;;0.90;0.35;;;;;;;21.29;35.43;101318.97;10323439;28;20202;-81
2022/07/06 13:58:43;;;;;;;0.77;0.30;;;;;;;21.00;34.57;101328.44;10343063;28;20240;-81
2022/07/06 14:03:46;;;;;;;2.75;0.25;;;;;;;21.67;34.55;101317.88;10345735;28;20217;-80
2022/07/06 14:08:48;;;;;;;2.78;0.32;;;;;;;22.22;33.22;101315.31;10342926;28;20861;-81
2022/07/06 14:13:51;;;;;;;2.13;0.25;;;;;;;22.16;34.26;101313.91;10346997;28;20201;-81
2022/07/06 14:18:53;;;;;;;3.10;0.45;;;;;;;22.05;34.02;101318.41;10348679;28;20549;-81
2022/07/06 14:23:55;;;;;;;1.73;0.25;;;;;;;22.24;33.50;101314.94;10363847;28;20279;-81
2022/07/06 14:28:58;;;;;;;4.68;0.45;;;;;;;22.43;33.45;101292.38;10366129;28;20221;-81
2022/07/06 14:34:00;;;;;;;4.53;0.40;;;;;;;23.13;32.79;101292.84;10346591;28;20193;-80
2022/07/06 14:39:02;;;;;;;2.30;0.40;;;;;;;23.19;33.63;101280.00;10333543;28;20201;-80
2022/07/06 14:44:04;;;;;;;3.70;0.50;;;;;;;23.00;32.88;101291.25;10344828;28;20247;-82
2022/07/06 14:49:07;;;;;;;4.43;0.30;;;;;;;22.55;35.12;101292.34;10344922;28;20197;-83
2022/07/06 14:54:09;;;;;;;3.13;0.38;;;;;;;22.01;35.32;101299.53;10360550;28;20190;-80
2022/07/06 14:59:11;;;;;;;2.13;0.35;;;;;;;21.55;35.46;101298.75;10312796;28;20234;-80
2022/07/06 15:04:26;;;;;;;5.07;0.40;;;;;;;21.89;35.11;101275.53;10301624;28;20237;-82
2022/07/06 15:09:30;;;;;;;4.10;0.50;;;;;;;21.97;34.06;101281.50;10338584;28;20257;-82
2022/07/06 15:14:32;;;;;;;2.72;0.55;;;;;;;21.93;35.05;101276.50;10345726;28;20247;-82
2022/07/06 15:19:35;;;;;;;1.90;0.40;;;;;;;21.90;34.26;101277.22;10342409;28;20278;-83
2022/07/06 15:24:38;;;;;;;3.53;0.30;;;;;;;22.07;34.56;101275.31;10356859;28;20189;-88
2022/07/06 15:29:41;;;;;;;1.50;0.30;;;;;;;21.70;34.76;101275.28;10361052;28;20503;-94
2022/07/06 15:34:44;;;;;;;2.38;0.50;;;;;;;21.96;34.54;101263.56;10384961;28;20189;-93
2022/07/06 15:39:46;;;;;;;3.13;0.57;;;;;;;22.04;34.08;101265.50;10395433;28;20256;-93
2022/07/06 15:44:50;;;;;;;3.67;0.93;;;;;;;22.30;33.53;101245.16;10410624;28;20193;-92
2022/07/06 15:49:53;;;;;;;2.30;0.77;;;;;;;22.33;33.89;101238.69;10400493;28;20240;-93
2022/07/06 15:54:55;;;;;;;2.35;0.20;;;;;;;21.89;34.74;101241.38;10387954;28;20193;-92
2022/07/06 15:59:57;;;;;;;3.80;0.40;;;;;;;22.21;35.25;101235.88;10396290;28;20243;-93
2022/07/06 16:05:00;;;;;;;3.25;0.40;;;;;;;22.28;34.74;101227.56;10406747;28;20208;-93
2022/07/06 16:10:04;;;;;;;1.33;0.40;;;;;;;23.08;32.85;101216.09;10399454;28;20716;-95
2022/07/06 16:15:07;;;;;;;3.53;0.45;;;;;;;23.25;32.72;101212.88;10369761;28;20201;-94
2022/07/06 16:20:11;;;;;;;3.97;0.50;;;;;;;22.69;32.98;101199.91;10415015;28;20255;-92
2022/07/06 16:25:14;;;;;;;2.78;0.50;;;;;;;22.80;33.44;101196.16;10403534;28;20234;-84
2022/07/06 16:30:16;;;;;;;2.40;0.30;;;;;;;22.87;32.44;101199.22;10397510;28;20229;-83
2022/07/06 16:35:23;;;;;;;2.17;0.50;;;;;;;23.17;33.63;101202.47;10397191;28;20252;-84
2022/07/06 16:40:45;;;;;;;2.35;0.30;;;;;;;23.31;32.91;101190.66;10376719;28;20240;-83
2022/07/06 16:45:47;;;;;;;1.38;0.20;;;;;;;22.49;33.81;101188.31;10401639;28;20197;-84
2022/07/06 16:50:50;;;;;;;0.88;0.25;;;;;;;23.23;32.63;101186.72;10383973;28;20243;-83
2022/07/06 16:55:52;;;;;;;3.65;0.20;;;;;;;22.79;32.77;101176.56;10385916;28;20250;-82
2022/07/06 17:00:55;;;;;;;4.28;0.30;;;;;;;22.76;32.91;101177.28;10388437;28;20260;-83
2022/07/06 17:05:57;;;;;;;0.77;0.30;;;;;;;23.61;32.37;101180.41;10376593;28;20239;-83
2022/07/06 17:11:00;;;;;;;1.85;0.20;;;;;;;23.84;31.88;101166.28;10370726;28;20660;-82
2022/07/06 17:16:02;;;;;;;1.73;0.32;;;;;;;24.06;32.28;101161.06;10395742;28;20193;-84
2022/07/06 17:21:04;;;;;;;1.33;0.40;;;;;;;23.15;32.74;101159.22;10382617;28;20240;-84
2022/07/06 17:26:07;;;;;;;2.20;0.30;;;;;;;22.87;33.71;101167.00;10386441;28;20197;-85
2022/07/06 17:31:09;;;;;;;0.50;0.20;;;;;;;21.40;35.57;101168.56;10399001;28;20607;-83
2022/07/06 17:36:12;;;;;;;1.15;0.20;;;;;;;22.46;34.47;101154.81;10380404;28;20251;-83
2022/07/06 17:41:15;;;;;;;1.55;0.20;;;;;;;22.22;34.76;101163.47;10394072;28;20208;-83
2022/07/06 17:46:17;;;;;;;2.45;0.20;;;;;;;22.34;34.99;101162.59;10387245;28;20278;-83
2022/07/06 17:51:20;;;;;;;3.25;0.20;;;;;;;21.99;35.98;101160.34;10391806;28;20189;-82
2022/07/06 17:56:22;;;;;;;1.17;0.40;;;;;;;23.26;34.20;101151.75;10400313;28;20288;-82
2022/07/06 18:01:25;;;;;;;4.15;0.40;;;;;;;23.04;34.07;101149.56;10385350;28;20240;-83
2022/07/06 18:06:27;;;;;;;2.20;0.60;;;;;;;21.77;36.26;101147.44;10382219;28;20217;-82
2022/07/06 18:11:29;;;;;;;1.65;0.30;;;;;;;21.92;36.74;101143.84;10388646;28;20193;-82
2022/07/06 18:16:32;;;;;;;1.42;0.30;;;;;;;22.20;35.85;101137.34;10403078;28;20254;-82
2022/07/06 18:21:34;;;;;;;2.97;0.38;;;;;;;21.10;37.72;101140.31;10382864;28;20554;-83
2022/07/06 18:26:37;;;;;;;0.90;0.20;;;;;;;21.17;37.71;101148.25;10385939;28;20493;-84
2022/07/06 18:31:39;;;;;;;4.80;0.52;;;;;;;21.07;38.02;101145.88;10384227;28;20279;-83
2022/07/06 18:36:42;;;;;;;2.70;0.30;;;;;;;20.89;38.83;101144.44;10389041;28;20189;-82
2022/07/06 18:41:45;;;;;;;2.63;0.30;;;;;;;21.00;39.00;101151.31;10380672;28;20282;-83
2022/07/06 18:46:55;;;;;;;1.05;0.35;;;;;;;21.11;38.22;101147.66;10397512;28;20196;-84
2022/07/06 18:51:58;;;;;;;2.38;0.38;;;;;;;20.99;38.62;101141.97;10382693;28;20536;-83
2022/07/06 18:57:00;;;;;;;5.93;0.50;;;;;;;21.01;39.53;101142.44;10388175;28;20209;-83
2022/07/06 19:02:02;;;;;;;0.60;0.30;;;;;;;20.76;39.52;101126.50;10398656;28;20208;-84
2022/07/06 19:07:05;;;;;;;1.73;0.20;;;;;;;20.74;39.67;101128.88;10383823;28;20777;-84
2022/07/06 19:12:08;;;;;;;1.63;0.47;;;;;;;21.04;39.89;101116.13;10404361;28;20193;-83
2022/07/06 19:17:10;;;;;;;4.07;0.40;;;;;;;21.91;37.81;101122.25;10397862;28;20260;-83
2022/07/06 19:22:13;;;;;;;1.83;0.30;;;;;;;22.17;37.91;101109.63;10382367;28;20254;-83
2022/07/06 19:27:15;;;;;;;2.63;0.35;;;;;;;22.24;37.10;101109.81;10391498;28;20239;-83
2022/07/06 19:32:18;;;;;;;1.42;0.20;;;;;;;21.97;37.88;101127.72;10396704;28;20633;-83
2022/07/06 19:37:20;;;;;;;3.85;0.40;;;;;;;22.37;36.85;101122.81;10396671;28;20606;-84
2022/07/06 19:42:23;;;;;;;1.10;0.40;;;;;;;22.19;37.16;101122.28;10349956;28;20209;-84
2022/07/06 19:47:25;;;;;;;2.05;0.55;;;;;;;22.37;36.50;101117.13;10364194;28;20216;-84
2022/07/06 19:52:27;;;;;;;3.15;0.30;;;;;;;22.35;37.05;101113.78;10365522;28;20581;-83
2022/07/06 19:57:30;;;;;;;3.30;0.30;;;;;;;22.06;37.92;101111.28;10402949;28;20575;-83
2022/07/06 20:02:32;;;;;;;1.88;0.50;;;;;;;22.08;37.22;101120.31;10393248;28;20279;-85
2022/07/06 20:07:35;;;;;;;2.83;0.43;;;;;;;21.91;37.53;101118.56;10389074;28;20966;-85
2022/07/06 20:12:38;;;;;;;1.95;0.40;;;;;;;22.40;37.39;101124.13;10388701;28;20229;-83
2022/07/06 20:17:40;;;;;;;3.25;0.57;;;;;;;22.39;37.76;101122.47;10400539;28;20501;-83
2022/07/06 20:22:43;;;;;;;1.13;0.30;;;;;;;22.37;37.68;101117.13;10363781;28;20248;-82
2022/07/06 20:27:45;;;;;;;0.35;0.28;;;;;;;21.00;40.28;101117.19;10392877;28;20595;-88
2022/07/06 20:32:58;;;;;;;2.10;0.38;;;;;;;20.57;41.46;101114.84;10367930;28;20215;-87
2022/07/06 20:38:00;;;;;;;0.50;0.20;;;;;;;20.61;41.44;101110.97;10398503;28;20580;-85
2022/07/06 20:43:02;;;;;;;3.30;0.57;;;;;;;20.51;41.84;101106.53;10380439;28;20611;-84
2022/07/06 20:48:23;;;;;;;1.52;0.32;;;;;;;20.55;42.52;101105.84;10419001;28;20224;-82
2022/07/06 20:53:26;;;;;;;0.80;0.30;;;;;;;20.62;43.09;101108.97;10393941;28;20282;-83
2022/07/06 20:58:29;;;;;;;0.55;0.40;;;;;;;20.74;43.28;101103.31;10394800;28;20227;-85
2022/07/06 21:03:52;;;;;;;2.60;0.35;;;;;;;20.78;41.23;101105.06;10397679;28;20267;-84
2022/07/06 21:08:54;;;;;;;1.05;0.40;;;;;;;21.55;40.19;101088.97;10403847;28;20224;-84
2022/07/06 21:13:57;;;;;;;1.70;0.60;;;;;;;21.90;40.81;101094.97;10361318;28;20290;-84
2022/07/06 21:18:59;;;;;;;1.50;0.77;;;;;;;21.54;40.40;101097.88;10387766;28;20261;-84
2022/07/06 21:24:02;;;;;;;5.00;1.00;;;;;;;21.91;39.47;101073.00;10374756;28;20248;-85
2022/07/06 21:29:05;;;;;;;1.63;0.55;;;;;;;21.99;38.98;101074.06;10405462;28;20252;-87
2022/07/06 21:34:07;;;;;;;3.67;0.47;;;;;;;21.95;39.19;101067.44;10396356;28;20193;-85
2022/07/06 21:39:09;;;;;;;2.42;0.70;;;;;;;20.85;41.18;101079.75;10379041;28;20228;-85
2022/07/06 21:44:12;;;;;;;1.40;0.50;;;;;;;20.57;42.59;101070.22;10389239;28;20689;-85
2022/07/06 21:49:14;;;;;;;2.83;0.40;;;;;;;20.51;42.48;101066.75;10375316;28;20196;-84
2022/07/06 21:54:17;;;;;;;4.57;0.73;;;;;;;21.55;41.23;101059.69;10395137;28;20228;-85
2022/07/06 21:59:19;;;;;;;2.42;0.50;;;;;;;21.66;41.20;101066.56;10374074;28;20531;-85
2022/07/06 22:04:24;;;;;;;0.68;0.43;;;;;;;21.41;46.19;101062.09;10375065;28;20228;-86
2022/07/06 22:09:30;;;;;;;4.05;0.50;;;;;;;21.45;45.60;101049.63;10382473;28;20200;-84
2022/07/06 22:14:33;;;;;;;4.50;0.57;;;;;;;21.36;45.68;101040.41;10379363;28;20251;-87
2022/07/06 22:19:35;;;;;;;2.25;0.40;;;;;;;21.37;45.67;101038.41;10387534;28;20225;-85
2022/07/06 22:24:38;;;;;;;2.83;0.80;;;;;;;21.28;45.68;101040.56;10373136;28;20737;-84
2022/07/06 22:29:40;;;;;;;1.63;0.63;;;;;;;21.28;46.08;101032.81;10386751;28;20221;-81
2022/07/06 22:34:43;;;;;;;2.38;0.50;;;;;;;21.25;46.04;101024.19;10396072;28;20217;-82
2022/07/06 22:39:45;;;;;;;3.53;0.60;;;;;;;20.87;47.44;101028.22;10398435;28;20204;-82
2022/07/06 22:44:48;;;;;;;3.35;0.55;;;;;;;19.80;48.60;101030.06;10380788;28;20306;-82
2022/07/06 22:49:57;;;;;;;4.10;0.60;;;;;;;19.82;48.66;101021.19;10395873;28;20196;-82
2022/07/06 22:54:59;;;;;;;4.38;0.55;;;;;;;20.63;46.87;101017.66;10379906;28;20506;-83
2022/07/06 23:00:05;;;;;;;2.17;0.70;;;;;;;20.70;45.45;101017.06;10380242;28;20196;-82
2022/07/06 23:05:07;;;;;;;1.63;0.52;;;;;;;21.00;44.89;101015.66;10366949;28;20260;-82
2022/07/06 23:10:10;;;;;;;3.95;0.90;;;;;;;19.94;47.42;101014.75;10377310;28;20193;-82
2022/07/06 23:15:12;;;;;;;1.80;0.55;;;;;;;19.78;48.41;101015.38;10408701;28;20666;-82
2022/07/06 23:20:15;;;;;;;1.70;0.65;;;;;;;20.77;45.67;100994.56;10403929;28;20231;-82
2022/07/06 23:25:17;;;;;;;1.60;0.55;;;;;;;20.99;44.91;100996.94;10405755;28;20252;-83